createdAt,value
2023-08-28T00:14:27.992Z,95
2023-08-28T00:29:27.929Z,94
2023-08-28T00:44:27.958Z,92
2023-08-28T00:59:27.887Z,90
2023-08-28T01:14:27.894Z,90
2023-08-28T01:29:27.830Z,90
2023-08-28T01:44:27.830Z,91
2023-08-28T01:59:27.775Z,91
2023-08-28T02:14:27.793Z,90
2023-08-28T02:29:27.755Z,89
2023-08-28T02:44:27.767Z,87
2023-08-28T02:59:27.709Z,85
2023-08-28T03:14:27.714Z,84
2023-08-28T03:29:27.657Z,84
2023-08-28T03:44:27.676Z,85
2023-08-28T03:59:27.624Z,87
2023-08-28T04:14:27.612Z,88
2023-08-28T04:29:27.578Z,89
2023-08-28T04:44:27.572Z,90
2023-08-28T04:59:27.518Z,90
2023-08-28T05:14:27.519Z,90
2023-08-28T05:29:27.521Z,90
2023-08-28T05:44:27.495Z,91
2023-08-28T05:59:27.430Z,90
2023-08-28T06:14:27.449Z,89
2023-08-28T06:29:27.396Z,86
2023-08-28T06:44:27.392Z,87
2023-08-28T06:59:27.354Z,88
2023-08-28T07:14:27.470Z,89
2023-08-28T07:29:27.314Z,90
2023-08-28T07:44:27.270Z,90
2023-08-28T07:59:27.244Z,89
2023-08-28T08:14:27.278Z,89
2023-08-28T08:29:27.233Z,88
2023-08-28T08:44:27.309Z,88
2023-08-28T08:59:27.219Z,89
2023-08-28T09:14:27.200Z,88
2023-08-28T09:29:27.143Z,89
2023-08-28T09:44:27.156Z,88
2023-08-28T09:59:27.144Z,89
2023-08-28T10:14:27.100Z,88
2023-08-28T10:29:27.086Z,88
2023-08-28T10:44:27.077Z,88
2023-08-28T10:59:27.112Z,87
2023-08-28T11:14:29.143Z,87
2023-08-28T11:29:26.988Z,87
2023-08-28T11:44:27.009Z,87
2023-08-28T11:59:26.929Z,87
2023-08-28T12:14:26.928Z,86
2023-08-28T12:29:26.902Z,85
2023-08-28T12:44:26.899Z,84
2023-08-28T12:59:26.824Z,84
2023-08-28T13:14:26.854Z,83
2023-08-28T13:29:26.814Z,83
2023-08-28T13:44:27.977Z,82
2023-08-28T13:59:26.765Z,82
2023-08-28T14:14:26.781Z,82
2023-08-28T14:29:26.721Z,83
2023-08-28T14:44:26.731Z,83
2023-08-28T14:59:26.648Z,84
2023-08-28T15:14:26.686Z,84
2023-08-28T15:29:26.616Z,85
2023-08-28T15:44:26.648Z,83
2023-08-28T15:59:26.628Z,82
2023-08-28T16:14:26.596Z,82
2023-08-28T16:29:26.543Z,82
2023-08-28T16:44:26.593Z,83
2023-08-28T16:59:26.498Z,82
2023-08-28T17:14:26.528Z,82
2023-08-28T17:29:26.459Z,82
2023-08-28T17:44:26.473Z,81
2023-08-28T17:59:26.427Z,80
2023-08-28T18:14:26.452Z,80
2023-08-28T18:29:26.381Z,80
2023-08-28T18:44:26.379Z,79
2023-08-28T18:59:26.299Z,80
2023-08-28T19:14:26.331Z,80
2023-08-28T19:29:26.370Z,80
2023-08-28T19:44:26.288Z,81
2023-08-28T19:59:26.223Z,80
2023-08-28T20:14:26.215Z,79
2023-08-28T20:29:26.186Z,78
2023-08-28T20:44:26.234Z,78
2023-08-28T20:59:26.139Z,78
2023-08-28T21:14:26.186Z,76
2023-08-28T21:29:26.118Z,76
2023-08-28T21:44:26.105Z,75
2023-08-28T21:59:26.047Z,74
2023-08-28T22:14:26.066Z,74
2023-08-28T22:29:26.029Z,74
2023-08-28T22:44:26.029Z,74
2023-08-28T22:59:25.961Z,73
2023-08-28T23:14:25.978Z,73
2023-08-28T23:29:25.921Z,73
2023-08-28T23:44:25.957Z,73
2023-08-28T23:59:25.848Z,72
